createdAt,value
2023-02-25T00:00:34.535Z,6.05
2023-02-25T00:03:03.753Z,6.14
2023-02-25T00:05:33.941Z,6.28
2023-02-25T00:08:02.020Z,6.37
2023-02-25T00:10:31.692Z,6.41
2023-02-25T00:13:15.953Z,6.47
2023-02-25T00:15:47.100Z,6.42
2023-02-25T00:18:14.956Z,6.38
2023-02-25T00:20:43.662Z,6.33
2023-02-25T00:23:14.036Z,6.12
2023-02-25T00:25:43.518Z,6.35
2023-02-25T00:28:12.380Z,6.38
2023-02-25T00:30:42.723Z,6.51
2023-02-25T00:33:13.265Z,6.51
2023-02-25T00:35:43.497Z,6.49
2023-02-25T00:38:15.959Z,6.39
2023-02-25T00:40:45.432Z,6.51
2023-02-25T00:43:18.105Z,6.55
2023-02-25T00:45:46.134Z,6.47
2023-02-25T00:48:22.355Z,6.53
2023-02-25T00:50:51.816Z,6.57
2023-02-25T00:53:19.650Z,6.46
2023-02-25T00:55:47.882Z,6.59
2023-02-25T00:58:18.334Z,6.57
2023-02-25T01:00:52.074Z,6.60
2023-02-25T01:03:23.474Z,6.48
2023-02-25T01:05:57.216Z,6.46
2023-02-25T01:08:26.316Z,6.38
2023-02-25T01:10:54.808Z,6.56
2023-02-25T01:13:23.111Z,6.61
2023-02-25T01:15:53.414Z,6.53
2023-02-25T01:18:23.145Z,6.43
2023-02-25T01:20:51.194Z,6.78
2023-02-25T01:23:19.163Z,6.52
2023-02-25T01:25:47.508Z,6.60
2023-02-25T01:28:17.375Z,6.68
2023-02-25T01:30:48.071Z,6.70
2023-02-25T01:33:20.223Z,6.55
2023-02-25T01:35:49.743Z,6.54
2023-02-25T01:38:17.827Z,6.46
2023-02-25T01:40:46.118Z,6.35
2023-02-25T01:43:16.507Z,6.45
2023-02-25T01:45:49.569Z,6.53
2023-02-25T01:48:24.778Z,6.50
2023-02-25T01:51:00.386Z,6.59
2023-02-25T01:53:36.011Z,6.56
2023-02-25T01:56:05.171Z,6.72
2023-02-25T01:58:38.289Z,6.59
2023-02-25T02:01:24.462Z,6.48
2023-02-25T02:03:53.582Z,6.59
2023-02-25T02:06:29.284Z,6.48
2023-02-25T02:09:01.262Z,6.36
2023-02-25T02:11:31.098Z,6.54
2023-02-25T02:14:01.761Z,6.51
2023-02-25T02:17:09.778Z,6.50
2023-02-25T02:19:57.021Z,6.48
2023-02-25T02:22:41.026Z,6.49
2023-02-25T02:25:59.810Z,6.47
2023-02-25T02:29:00.083Z,6.41
2023-02-25T02:31:52.233Z,6.32
2023-02-25T02:34:32.544Z,6.28
2023-02-25T02:37:11.787Z,6.29
2023-02-25T02:39:53.445Z,6.33
2023-02-25T02:42:33.153Z,6.39
2023-02-25T02:45:09.456Z,6.37
2023-02-25T02:47:43.931Z,6.42
2023-02-25T02:50:18.620Z,6.23
2023-02-25T02:52:53.016Z,6.35
2023-02-25T02:55:27.819Z,6.47
2023-02-25T02:58:06.141Z,6.50
2023-02-25T03:00:39.248Z,6.63
2023-02-25T03:03:14.602Z,6.60
2023-02-25T03:05:46.139Z,6.55
2023-02-25T03:08:21.468Z,6.43
2023-02-25T03:10:51.415Z,6.59
2023-02-25T03:13:22.915Z,6.61
2023-02-25T03:15:56.824Z,6.58
2023-02-25T03:18:37.612Z,6.69
2023-02-25T03:21:14.682Z,6.35
2023-02-25T03:23:46.676Z,6.37
2023-02-25T03:26:25.152Z,6.49
2023-02-25T03:28:58.269Z,6.43
2023-02-25T03:31:29.343Z,6.49
2023-02-25T03:34:03.315Z,6.47
2023-02-25T03:36:37.609Z,6.58
2023-02-25T03:39:13.490Z,6.74
2023-02-25T03:41:46.817Z,6.61
2023-02-25T03:44:20.063Z,6.51
2023-02-25T03:46:50.640Z,6.35
2023-02-25T03:49:31.694Z,6.25
2023-02-25T03:52:04.401Z,6.52
2023-02-25T03:54:33.432Z,6.43
2023-02-25T03:57:08.775Z,6.43
2023-02-25T03:59:36.951Z,6.38
2023-02-25T04:02:07.153Z,6.50
2023-02-25T04:04:36.415Z,6.27
2023-02-25T04:07:04.496Z,6.41
2023-02-25T04:09:32.554Z,6.31
2023-02-25T04:12:01.798Z,6.32
2023-02-25T04:14:29.664Z,6.27
2023-02-25T04:16:57.508Z,6.54
2023-02-25T04:19:28.497Z,6.47
2023-02-25T04:22:02.678Z,6.55
2023-02-25T04:24:32.002Z,6.21
2023-02-25T04:27:02.745Z,6.35
2023-02-25T04:29:33.119Z,6.22
2023-02-25T04:32:08.315Z,6.22
2023-02-25T04:34:36.456Z,6.33
2023-02-25T04:37:06.210Z,6.19
2023-02-25T04:39:36.386Z,6.03
2023-02-25T04:42:05.443Z,6.07
2023-02-25T04:44:33.755Z,5.84
2023-02-25T04:47:02.133Z,5.90
2023-02-25T04:49:30.515Z,5.89
2023-02-25T04:51:59.618Z,5.94
2023-02-25T04:54:31.256Z,5.96
2023-02-25T04:57:01.544Z,5.85
2023-02-25T04:59:30.165Z,5.79
2023-02-25T05:01:58.218Z,5.91
2023-02-25T05:04:26.593Z,5.92
2023-02-25T05:06:55.683Z,6.04
2023-02-25T05:09:23.853Z,6.07
2023-02-25T05:11:55.060Z,6.14
2023-02-25T05:14:22.904Z,6.16
2023-02-25T05:17:02.157Z,6.10
2023-02-25T05:19:30.255Z,6.14
2023-02-25T05:22:01.096Z,6.30
2023-02-25T05:24:30.101Z,6.12
2023-02-25T05:27:08.361Z,6.20
2023-02-25T05:29:39.324Z,5.95
2023-02-25T05:32:10.378Z,6.01
2023-02-25T05:34:38.633Z,6.12
2023-02-25T05:37:07.476Z,6.10
2023-02-25T05:39:35.606Z,6.05
2023-02-25T05:42:06.164Z,6.00
2023-02-25T05:44:37.622Z,6.01
2023-02-25T05:47:07.506Z,6.15
2023-02-25T05:49:35.807Z,6.18
2023-02-25T05:52:05.208Z,6.08
2023-02-25T05:54:33.261Z,6.25
2023-02-25T05:57:03.672Z,6.31
2023-02-25T05:59:37.889Z,6.14
2023-02-25T06:02:06.357Z,6.11
2023-02-25T06:04:35.618Z,6.31
2023-02-25T06:07:04.490Z,6.22
2023-02-25T06:09:34.799Z,6.02
2023-02-25T06:12:03.704Z,6.03
2023-02-25T06:14:33.259Z,6.14
2023-02-25T06:17:02.299Z,6.04
2023-02-25T06:19:30.380Z,6.15
2023-02-25T06:21:58.397Z,6.03
2023-02-25T06:24:27.425Z,6.15
2023-02-25T06:26:55.127Z,6.27
2023-02-25T06:29:23.076Z,6.12
2023-02-25T06:31:54.838Z,5.80
2023-02-25T06:34:23.841Z,6.14
2023-02-25T06:36:56.203Z,6.33
2023-02-25T06:39:27.223Z,6.29
2023-02-25T06:41:55.434Z,6.20
2023-02-25T06:44:24.838Z,6.23
2023-02-25T06:47:05.019Z,6.14
2023-02-25T06:49:32.957Z,6.33
2023-02-25T06:52:01.273Z,6.20
2023-02-25T06:54:29.089Z,6.12
2023-02-25T06:56:59.591Z,6.23
2023-02-25T06:59:28.478Z,6.34
2023-02-25T07:01:57.572Z,6.26
2023-02-25T07:04:25.883Z,6.20
2023-02-25T07:06:57.199Z,6.27
2023-02-25T07:12:09.313Z,6.23
2023-02-25T07:14:37.452Z,6.30
2023-02-25T07:17:07.748Z,6.29
2023-02-25T07:19:40.976Z,6.59
2023-02-25T07:22:09.979Z,6.38
2023-02-25T07:24:41.283Z,6.54
2023-02-25T07:27:11.243Z,6.37
2023-02-25T07:29:40.059Z,6.42
2023-02-25T07:32:17.304Z,6.33
2023-02-25T07:34:52.665Z,6.22
2023-02-25T07:37:22.645Z,6.52
2023-02-25T07:39:52.544Z,6.22
2023-02-25T07:42:20.516Z,6.31
2023-02-25T07:44:53.133Z,6.52
2023-02-25T07:47:23.534Z,6.32
2023-02-25T07:49:53.974Z,6.51
2023-02-25T07:52:22.036Z,6.35
2023-02-25T07:54:51.226Z,6.27
2023-02-25T07:57:19.399Z,6.35
2023-02-25T08:00:01.207Z,6.15
2023-02-25T08:02:33.288Z,6.39
2023-02-25T08:05:04.892Z,6.29
2023-02-25T08:07:35.622Z,6.39
2023-02-25T08:10:05.337Z,6.41
2023-02-25T08:12:37.184Z,6.69
2023-02-25T08:15:07.532Z,6.76
2023-02-25T08:17:37.243Z,6.57
2023-02-25T08:20:07.554Z,6.54
2023-02-25T08:22:35.951Z,6.57
2023-02-25T08:25:04.189Z,6.48
2023-02-25T08:27:35.220Z,6.53
2023-02-25T08:30:12.953Z,6.67
2023-02-25T08:32:49.325Z,6.79
2023-02-25T08:35:20.330Z,6.61
2023-02-25T08:37:50.400Z,6.85
2023-02-25T08:40:20.003Z,6.75
2023-02-25T08:42:49.550Z,6.79
2023-02-25T08:45:22.063Z,6.74
2023-02-25T08:47:54.745Z,6.73
2023-02-25T08:50:25.232Z,6.73
2023-02-25T08:52:53.848Z,6.90
2023-02-25T08:55:25.054Z,6.72
2023-02-25T08:57:54.526Z,6.63
2023-02-25T09:00:24.564Z,6.91
2023-02-25T09:02:55.862Z,7.01
2023-02-25T09:05:25.784Z,7.32
2023-02-25T09:07:55.316Z,7.28
2023-02-25T09:10:25.156Z,7.40
2023-02-25T09:13:00.333Z,7.46
2023-02-25T09:15:29.011Z,7.16
2023-02-25T09:18:00.547Z,7.37
2023-02-25T09:20:28.763Z,7.54
2023-02-25T09:22:59.957Z,7.26
2023-02-25T09:25:30.092Z,7.72
2023-02-25T09:28:02.732Z,7.64
2023-02-25T09:30:30.597Z,7.44
2023-02-25T09:33:00.347Z,7.61
2023-02-25T09:35:29.778Z,7.77
2023-02-25T09:37:57.508Z,7.97
2023-02-25T09:40:26.710Z,7.73
2023-02-25T09:43:11.671Z,7.77
2023-02-25T09:45:39.793Z,8.02
2023-02-25T09:48:18.552Z,7.95
2023-02-25T09:50:54.774Z,7.97
2023-02-25T09:53:27.966Z,8.52
2023-02-25T09:55:56.868Z,8.48
2023-02-25T09:58:32.915Z,8.73
2023-02-25T10:01:07.544Z,8.76
2023-02-25T10:03:53.272Z,8.28
2023-02-25T10:06:32.616Z,8.55
2023-02-25T10:09:10.608Z,8.53
2023-02-25T10:11:47.983Z,8.18
2023-02-25T10:14:31.264Z,8.17
2023-02-25T10:17:09.037Z,8.15
2023-02-25T10:19:55.427Z,8.19
2023-02-25T10:22:42.104Z,8.30
2023-02-25T10:25:18.278Z,8.20
2023-02-25T10:27:51.996Z,8.20
2023-02-25T10:30:26.855Z,8.29
2023-02-25T10:32:56.595Z,8.00
2023-02-25T10:35:34.740Z,8.23
2023-02-25T10:38:02.673Z,8.12
2023-02-25T10:40:31.264Z,8.64
2023-02-25T10:43:04.393Z,8.25
2023-02-25T10:45:35.781Z,8.25
2023-02-25T10:48:11.224Z,8.77
2023-02-25T10:50:46.313Z,8.93
2023-02-25T10:53:17.425Z,8.68
2023-02-25T10:55:59.287Z,9.22
2023-02-25T10:58:47.796Z,8.92
2023-02-25T11:01:18.517Z,8.92
2023-02-25T11:03:59.700Z,9.13
2023-02-25T11:06:31.650Z,9.18
2023-02-25T11:09:07.177Z,9.11
2023-02-25T11:11:39.531Z,9.07
2023-02-25T11:14:25.227Z,9.12
2023-02-25T11:17:03.814Z,8.82
2023-02-25T11:19:36.683Z,8.34
2023-02-25T11:22:21.297Z,8.48
2023-02-25T11:25:01.159Z,8.87
2023-02-25T11:27:38.981Z,8.48
2023-02-25T11:30:20.765Z,8.04
2023-02-25T11:32:54.665Z,7.92
2023-02-25T11:35:30.220Z,7.51
2023-02-25T11:38:21.025Z,6.89
2023-02-25T11:40:49.292Z,6.11
2023-02-25T11:43:20.817Z,5.17
2023-02-25T11:45:55.319Z,4.70
2023-02-25T11:48:28.913Z,4.69
2023-02-25T11:51:09.975Z,4.92
2023-02-25T11:53:53.277Z,5.06
2023-02-25T11:56:27.559Z,5.30
2023-02-25T11:59:10.478Z,5.19
2023-02-25T12:02:00.530Z,5.21
2023-02-25T12:04:52.064Z,5.48
2023-02-25T12:07:55.400Z,5.98
2023-02-25T12:10:53.700Z,6.27
2023-02-25T12:13:59.232Z,6.57
2023-02-25T12:17:18.385Z,6.80
2023-02-25T12:20:17.956Z,7.03
2023-02-25T12:23:12.116Z,7.37
2023-02-25T12:25:52.210Z,7.71
2023-02-25T12:28:45.179Z,7.72
2023-02-25T12:31:39.401Z,7.45
2023-02-25T12:34:40.768Z,7.70
2023-02-25T12:37:42.114Z,7.83
2023-02-25T12:40:31.561Z,7.55
2023-02-25T12:43:22.335Z,7.61
2023-02-25T12:46:06.114Z,7.42
2023-02-25T12:49:22.279Z,7.49
2023-02-25T12:52:08.526Z,7.54
2023-02-25T12:55:08.479Z,7.37
2023-02-25T12:57:52.325Z,7.27
2023-02-25T13:00:49.500Z,7.30
2023-02-25T13:03:35.848Z,7.55
2023-02-25T13:06:47.549Z,7.73
2023-02-25T13:09:41.130Z,8.33
2023-02-25T13:12:37.877Z,8.70
2023-02-25T13:15:14.197Z,8.81
2023-02-25T13:18:24.073Z,8.41
2023-02-25T13:21:09.393Z,8.25
2023-02-25T13:23:58.620Z,8.25
2023-02-25T13:26:40.433Z,8.17
2023-02-25T13:29:24.268Z,8.17
2023-02-25T13:32:16.212Z,8.33
2023-02-25T13:34:53.360Z,8.26
2023-02-25T13:37:37.880Z,8.02
2023-02-25T13:40:46.352Z,8.09
2023-02-25T13:43:34.623Z,8.36
2023-02-25T13:46:31.557Z,8.19
2023-02-25T13:49:22.108Z,7.52
2023-02-25T13:52:23.832Z,6.90
2023-02-25T13:55:22.555Z,6.48
2023-02-25T13:58:20.712Z,6.51
2023-02-25T14:01:07.892Z,6.63
2023-02-25T14:04:25.423Z,6.61
2023-02-25T14:07:36.552Z,6.64
2023-02-25T14:10:26.775Z,6.27
2023-02-25T14:13:16.107Z,6.27
2023-02-25T14:16:00.215Z,6.18
2023-02-25T14:19:06.349Z,4.88
2023-02-25T14:22:02.698Z,4.15
2023-02-25T14:24:41.785Z,4.05
2023-02-25T14:27:26.215Z,4.00
2023-02-25T14:30:14.273Z,4.14
2023-02-25T14:32:54.075Z,4.30
2023-02-25T14:35:48.290Z,4.44
2023-02-25T14:38:23.171Z,4.63
2023-02-25T14:41:03.772Z,4.56
2023-02-25T14:43:36.241Z,4.66
2023-02-25T14:46:29.844Z,4.76
2023-02-25T14:49:02.637Z,4.90
2023-02-25T14:51:51.941Z,5.08
2023-02-25T14:55:06.169Z,5.00
2023-02-25T14:57:52.444Z,5.03
2023-02-25T15:00:50.312Z,5.42
2023-02-25T15:03:45.198Z,5.73
2023-02-25T15:06:42.269Z,6.11
2023-02-25T15:09:40.185Z,6.50
2023-02-25T15:12:30.696Z,6.71
2023-02-25T15:15:41.026Z,6.65
2023-02-25T15:18:28.039Z,6.55
2023-02-25T15:20:59.379Z,6.27
2023-02-25T15:23:52.424Z,6.22
2023-02-25T15:26:34.305Z,5.93
2023-02-25T15:29:02.980Z,5.85
2023-02-25T15:31:41.261Z,5.80
2023-02-25T15:34:37.335Z,5.67
2023-02-25T15:37:29.161Z,6.01
2023-02-25T15:40:02.124Z,7.44
2023-02-25T15:42:57.604Z,7.99
2023-02-25T15:45:46.894Z,9.10
2023-02-25T15:48:35.266Z,8.77
2023-02-25T15:51:10.192Z,8.79
2023-02-25T15:53:45.068Z,7.19
2023-02-25T15:56:51.131Z,6.79
2023-02-25T15:59:45.332Z,6.14
2023-02-25T16:02:51.884Z,5.82
2023-02-25T16:05:28.726Z,5.63
2023-02-25T16:08:08.204Z,5.47
2023-02-25T16:10:46.373Z,5.21
2023-02-25T16:13:17.364Z,5.56
2023-02-25T16:15:52.153Z,5.52
2023-02-25T16:18:33.017Z,5.15
2023-02-25T16:21:07.384Z,5.13
2023-02-25T16:23:41.681Z,4.98
2023-02-25T16:26:27.152Z,5.05
2023-02-25T16:32:03.135Z,5.00
2023-02-25T16:34:40.695Z,5.06
2023-02-25T16:37:17.907Z,4.85
2023-02-25T16:39:58.522Z,5.32
2023-02-25T16:42:54.341Z,5.29
2023-02-25T16:45:35.409Z,5.02
2023-02-25T16:51:39.622Z,5.08
2023-02-25T16:57:37.398Z,4.66
2023-02-25T17:16:52.054Z,4.81
2023-02-25T17:27:46.472Z,4.51
2023-02-25T17:30:37.769Z,4.61
2023-02-25T17:37:03.986Z,4.47
2023-02-25T17:56:28.670Z,4.27
2023-02-25T18:06:58.683Z,3.82
2023-02-25T18:09:44.554Z,4.00
2023-02-25T18:12:58.554Z,3.97
2023-02-25T18:15:32.254Z,4.09
2023-02-25T18:18:04.274Z,3.88
2023-02-25T18:20:37.953Z,3.76
2023-02-25T18:26:30.160Z,3.66
2023-02-25T18:29:30.300Z,3.56
2023-02-25T18:32:03.173Z,3.49
2023-02-25T18:34:32.878Z,3.21
2023-02-25T18:37:01.202Z,3.18
2023-02-25T18:39:31.658Z,3.16
2023-02-25T18:42:08.061Z,3.18
2023-02-25T18:44:41.752Z,3.20
2023-02-25T18:47:12.610Z,3.06
2023-02-25T18:49:49.673Z,3.02
2023-02-25T18:52:28.695Z,2.88
2023-02-25T18:54:58.644Z,2.79
2023-02-25T18:58:58.249Z,3.03
2023-02-25T19:05:08.160Z,2.52
2023-02-25T19:07:40.605Z,2.56
2023-02-25T19:10:21.806Z,2.68
2023-02-25T19:12:52.217Z,2.55
2023-02-25T19:15:23.736Z,2.49
2023-02-25T19:17:55.128Z,2.20
2023-02-25T19:20:28.671Z,2.25
2023-02-25T19:22:58.927Z,2.53
2023-02-25T19:25:35.277Z,2.74
2023-02-25T19:28:07.621Z,2.79
2023-02-25T19:30:42.916Z,2.56
2023-02-25T19:33:13.104Z,2.71
2023-02-25T19:35:44.484Z,2.42
2023-02-25T19:38:16.014Z,2.43
2023-02-25T19:41:01.476Z,2.38
2023-02-25T19:43:37.892Z,2.58
2023-02-25T19:46:11.281Z,2.46
2023-02-25T19:48:40.654Z,2.42
2023-02-25T19:51:21.256Z,2.30
2023-02-25T20:46:45.762Z,1.73
2023-02-25T21:22:06.460Z,1.50
2023-02-25T21:25:31.859Z,1.50
2023-02-25T22:10:46.992Z,0.94
2023-02-25T22:13:15.191Z,0.90
2023-02-25T22:15:49.164Z,1.23
2023-02-25T22:18:23.428Z,1.20
2023-02-25T22:20:51.674Z,1.11
2023-02-25T22:23:19.999Z,1.18
2023-02-25T22:25:58.237Z,1.15
2023-02-25T22:28:32.013Z,1.04
2023-02-25T22:31:02.909Z,1.01
2023-02-25T22:33:39.481Z,0.92
2023-02-25T22:36:40.581Z,0.77
2023-02-25T22:39:38.295Z,0.99
2023-02-25T22:53:12.142Z,1.04
2023-02-25T22:55:41.978Z,0.88
2023-02-25T23:01:41.792Z,0.98
2023-02-25T23:08:12.146Z,0.94
